createdAt,value
2023-02-07T00:00:17.810Z,99064.03
2023-02-07T00:02:49.535Z,99070.88
2023-02-07T00:05:16.475Z,99075.13
2023-02-07T00:07:43.548Z,99064.78
2023-02-07T00:10:10.637Z,99064.75
2023-02-07T00:12:37.168Z,99068.19
2023-02-07T00:15:04.640Z,99055.41
2023-02-07T00:17:31.334Z,99053.69
2023-02-07T00:19:58.212Z,99054.63
2023-02-07T00:22:24.901Z,99042.69
2023-02-07T00:24:51.741Z,99043.53
2023-02-07T00:27:18.669Z,99043.47
2023-02-07T00:29:45.426Z,99046.78
2023-02-07T00:32:11.980Z,99045.88
2023-02-07T00:34:38.569Z,99054.44
2023-02-07T00:37:06.172Z,99048.38
2023-02-07T00:39:32.946Z,99040.75
2023-02-07T00:41:59.567Z,99034.69
2023-02-07T00:44:26.380Z,99038.03
2023-02-07T00:46:52.892Z,99042.34
2023-02-07T00:49:19.463Z,99036.25
2023-02-07T00:51:46.112Z,99037.09
2023-02-07T00:54:12.642Z,99044.78
2023-02-07T00:56:39.459Z,99038.00
2023-02-07T00:59:06.163Z,99043.94
2023-02-07T01:01:33.046Z,99047.25
2023-02-07T01:03:59.902Z,99060.91
2023-02-07T01:06:28.113Z,99066.88
2023-02-07T01:08:59.085Z,99070.22
2023-02-07T01:11:26.584Z,99074.41
2023-02-07T01:13:53.625Z,99074.41
2023-02-07T01:16:25.161Z,99083.81
2023-02-07T01:18:51.993Z,99078.69
2023-02-07T01:21:24.518Z,99082.97
2023-02-07T01:23:51.701Z,99084.69
2023-02-07T01:26:18.543Z,99081.19
2023-02-07T01:28:45.100Z,99072.56
2023-02-07T01:31:13.251Z,99079.38
2023-02-07T01:33:39.836Z,99075.16
2023-02-07T01:36:11.813Z,99075.13
2023-02-07T01:38:38.664Z,99082.06
2023-02-07T01:41:05.777Z,99075.13
2023-02-07T01:43:32.638Z,99069.13
2023-02-07T01:45:59.208Z,99077.66
2023-02-07T01:48:36.810Z,99071.63
2023-02-07T01:51:07.612Z,99077.56
2023-02-07T01:53:37.382Z,99072.44
2023-02-07T01:56:07.064Z,99080.94
2023-02-07T01:58:34.306Z,99068.09
2023-02-07T02:01:04.362Z,99074.13
2023-02-07T02:03:30.739Z,99072.34
2023-02-07T02:05:57.604Z,99078.28
2023-02-07T02:08:24.856Z,99067.22
2023-02-07T02:11:29.891Z,99073.09
2023-02-07T02:14:21.376Z,99062.06
2023-02-07T02:16:50.595Z,99079.94
2023-02-07T02:19:37.054Z,99083.44
2023-02-07T02:22:39.084Z,99078.16
2023-02-07T02:25:33.428Z,99074.69
2023-02-07T02:28:11.745Z,99066.06
2023-02-07T02:30:58.286Z,99088.34
2023-02-07T02:33:30.950Z,99091.75
2023-02-07T02:36:21.879Z,99095.81
2023-02-07T02:39:02.849Z,99087.94
2023-02-07T02:41:40.740Z,99101.59
2023-02-07T02:44:25.960Z,99091.31
2023-02-07T02:46:54.359Z,99094.63
2023-02-07T02:49:26.160Z,99092.03
2023-02-07T02:51:52.912Z,99078.28
2023-02-07T02:54:31.120Z,99051.00
2023-02-07T02:57:16.062Z,99053.59
2023-02-07T03:00:07.854Z,99041.59
2023-02-07T03:03:00.600Z,99040.69
2023-02-07T03:05:38.903Z,99051.69
2023-02-07T03:08:28.275Z,99043.03
2023-02-07T03:11:07.875Z,99043.03
2023-02-07T03:13:59.215Z,99041.34
2023-02-07T03:16:37.965Z,99037.13
2023-02-07T03:19:07.866Z,99050.91
2023-02-07T03:21:41.349Z,99050.69
2023-02-07T03:24:15.298Z,99052.28
2023-02-07T03:26:44.754Z,99050.34
2023-02-07T03:29:14.916Z,99045.97
2023-02-07T03:31:45.548Z,99035.59
2023-02-07T03:34:16.834Z,99035.47
2023-02-07T03:36:58.354Z,99048.38
2023-02-07T03:39:25.567Z,99056.91
2023-02-07T03:41:57.494Z,99062.00
2023-02-07T03:44:27.158Z,99055.03
2023-02-07T03:46:54.703Z,99054.97
2023-02-07T03:49:21.715Z,99045.50
2023-02-07T03:51:48.290Z,99048.06
2023-02-07T03:54:15.132Z,99052.34
2023-02-07T03:56:41.822Z,99049.84
2023-02-07T03:59:08.662Z,99048.91
2023-02-07T04:01:40.731Z,99052.38
2023-02-07T04:04:08.007Z,99047.25
2023-02-07T04:06:34.580Z,99048.19
2023-02-07T04:09:01.151Z,99032.06
2023-02-07T04:11:30.723Z,99030.41
2023-02-07T04:13:57.319Z,99034.59
2023-02-07T04:16:24.727Z,99031.22
2023-02-07T04:18:51.292Z,99034.66
2023-02-07T04:21:17.884Z,99018.28
2023-02-07T04:23:44.412Z,99016.41
2023-02-07T04:26:10.956Z,99041.06
2023-02-07T04:28:37.485Z,99050.25
2023-02-07T04:31:04.188Z,99043.25
2023-02-07T04:33:30.716Z,99032.88
2023-02-07T04:36:03.108Z,99042.16
2023-02-07T04:38:30.043Z,99036.00
2023-02-07T04:41:03.421Z,99033.41
2023-02-07T04:43:31.008Z,99060.66
2023-02-07T04:45:57.546Z,99072.66
2023-02-07T04:48:24.248Z,99068.34
2023-02-07T04:50:50.696Z,99075.25
2023-02-07T04:53:17.324Z,99053.88
2023-02-07T04:55:47.389Z,99054.72
2023-02-07T04:58:14.114Z,99053.88
2023-02-07T05:00:40.887Z,99055.66
2023-02-07T05:03:07.378Z,99059.91
2023-02-07T05:05:33.882Z,99074.53
2023-02-07T05:08:00.351Z,99072.06
2023-02-07T05:10:26.870Z,99063.41
2023-02-07T05:12:53.395Z,99061.63
2023-02-07T05:15:20.009Z,99061.66
2023-02-07T05:17:46.679Z,99063.22
2023-02-07T05:20:13.277Z,99072.44
2023-02-07T05:22:39.769Z,99066.34
2023-02-07T05:25:06.589Z,99070.41
2023-02-07T05:27:33.405Z,99077.09
2023-02-07T05:30:00.065Z,99069.28
2023-02-07T05:32:45.398Z,99068.38
2023-02-07T05:35:12.024Z,99069.25
2023-02-07T05:37:38.600Z,99070.34
2023-02-07T05:40:05.642Z,99064.47
2023-02-07T05:42:32.345Z,99069.63
2023-02-07T05:44:58.933Z,99071.56
2023-02-07T05:47:25.494Z,99068.31
2023-02-07T05:49:52.042Z,99087.19
2023-02-07T05:52:18.664Z,99086.19
2023-02-07T05:54:45.160Z,99086.91
2023-02-07T05:57:11.665Z,99082.50
2023-02-07T05:59:38.172Z,99084.13
2023-02-07T06:02:04.690Z,99088.28
2023-02-07T06:04:31.471Z,99094.09
2023-02-07T06:06:57.981Z,99094.72
2023-02-07T06:09:24.521Z,99101.53
2023-02-07T06:11:50.986Z,99099.84
2023-02-07T06:14:17.700Z,99102.28
2023-02-07T06:16:44.184Z,99097.97
2023-02-07T06:19:12.976Z,99104.00
2023-02-07T06:21:46.518Z,99112.56
2023-02-07T06:24:14.286Z,99122.19
2023-02-07T06:26:40.790Z,99120.50
2023-02-07T06:29:07.565Z,99125.75
2023-02-07T06:31:34.111Z,99121.44
2023-02-07T06:34:00.671Z,99127.47
2023-02-07T06:36:27.188Z,99123.97
2023-02-07T06:38:55.522Z,99126.66
2023-02-07T06:41:22.836Z,99132.69
2023-02-07T06:43:49.392Z,99134.44
2023-02-07T06:46:16.117Z,99137.84
2023-02-07T06:48:42.741Z,99134.56
2023-02-07T06:51:09.397Z,99131.13
2023-02-07T06:53:35.917Z,99131.09
2023-02-07T06:56:02.639Z,99138.00
2023-02-07T06:58:29.129Z,99141.53
2023-02-07T07:00:55.653Z,99136.47
2023-02-07T07:03:26.992Z,99138.25
2023-02-07T07:05:53.644Z,99134.22
2023-02-07T07:08:20.422Z,99128.34
2023-02-07T07:10:46.963Z,99131.16
2023-02-07T07:13:13.523Z,99127.09
2023-02-07T07:15:40.276Z,99129.16
2023-02-07T07:18:06.986Z,99126.19
2023-02-07T07:20:33.557Z,99113.00
2023-02-07T07:23:00.036Z,99117.84
2023-02-07T07:25:26.495Z,99126.00
2023-02-07T07:27:53.554Z,99118.81
2023-02-07T07:30:20.138Z,99123.72
2023-02-07T07:32:46.473Z,99127.72
2023-02-07T07:35:12.925Z,99126.56
2023-02-07T07:37:39.377Z,99114.16
2023-02-07T07:40:06.047Z,99111.97
2023-02-07T07:42:32.530Z,99104.69
2023-02-07T07:44:58.939Z,99105.19
2023-02-07T07:47:27.313Z,99110.78
2023-02-07T07:49:54.063Z,99114.78
2023-02-07T07:52:20.514Z,99119.81
2023-02-07T07:54:46.905Z,99115.97
2023-02-07T07:57:13.423Z,99123.25
2023-02-07T07:59:39.862Z,99121.03
2023-02-07T08:02:06.598Z,99124.06
2023-02-07T08:04:33.051Z,99112.91
2023-02-07T08:07:00.714Z,99120.88
2023-02-07T08:09:27.090Z,99119.06
2023-02-07T08:11:53.576Z,99124.38
2023-02-07T08:14:19.991Z,99132.50
2023-02-07T08:16:46.400Z,99137.81
2023-02-07T08:19:12.757Z,99138.72
2023-02-07T08:21:39.168Z,99141.31
2023-02-07T08:24:05.659Z,99137.13
2023-02-07T08:26:32.029Z,99143.22
2023-02-07T08:28:58.452Z,99138.06
2023-02-07T08:31:24.938Z,99129.41
2023-02-07T08:33:51.885Z,99132.84
2023-02-07T08:36:18.639Z,99137.19
2023-02-07T08:38:45.062Z,99138.03
2023-02-07T08:41:11.477Z,99129.34
2023-02-07T08:43:38.231Z,99122.25
2023-02-07T08:46:05.402Z,99124.06
2023-02-07T08:48:31.884Z,99126.72
2023-02-07T08:50:58.749Z,99123.31
2023-02-07T08:53:25.352Z,99121.56
2023-02-07T08:55:52.059Z,99123.19
2023-02-07T08:58:18.644Z,99119.75
2023-02-07T09:00:45.482Z,99124.94
2023-02-07T09:18:12.796Z,99125.66
2023-02-07T09:20:40.282Z,99129.06
2023-02-07T09:23:19.557Z,99128.13
2023-02-07T09:25:47.378Z,99122.59
2023-02-07T09:28:13.948Z,99121.19
2023-02-07T09:31:17.148Z,99117.47
2023-02-07T09:33:45.693Z,99113.19
2023-02-07T09:36:31.010Z,99121.53
2023-02-07T09:38:58.239Z,99126.06
2023-02-07T09:42:05.532Z,99133.16
2023-02-07T10:11:04.484Z,99099.22
2023-02-07T10:17:16.588Z,99105.88
2023-02-07T10:23:54.622Z,99108.63
2023-02-07T10:26:41.041Z,99095.81
2023-02-07T10:29:18.105Z,99115.31
2023-02-07T10:31:47.465Z,99115.69
2023-02-07T10:34:15.644Z,99119.91
2023-02-07T10:36:44.694Z,99122.59
2023-02-07T10:39:20.170Z,99111.75
2023-02-07T10:41:46.578Z,99113.25
2023-02-07T10:44:15.599Z,99110.31
2023-02-07T10:46:43.840Z,99100.34
2023-02-07T10:49:25.191Z,99096.59
2023-02-07T10:51:54.894Z,99094.91
2023-02-07T10:54:24.342Z,99097.53
2023-02-07T10:56:52.890Z,99089.03
2023-02-07T10:59:36.531Z,99082.47
2023-02-07T11:02:22.904Z,99078.41
2023-02-07T11:04:49.415Z,99077.69
2023-02-07T11:07:15.884Z,99078.38
2023-02-07T11:09:42.298Z,99073.66
2023-02-07T11:12:16.417Z,99071.28
2023-02-07T11:14:58.706Z,99072.06
2023-02-07T11:17:25.219Z,99066.63
2023-02-07T11:19:51.674Z,99067.66
2023-02-07T11:22:20.154Z,99060.06
2023-02-07T11:24:47.199Z,99058.56
2023-02-07T11:27:15.658Z,99060.53
2023-02-07T11:29:57.411Z,99063.84
2023-02-07T11:32:25.376Z,99056.97
2023-02-07T11:38:13.916Z,99054.22
2023-02-07T11:44:34.498Z,99047.84
2023-02-07T11:47:04.701Z,99037.81
2023-02-07T11:52:57.152Z,99027.94
2023-02-07T11:58:52.192Z,99027.78
2023-02-07T12:04:46.664Z,99024.72
2023-02-07T12:18:01.926Z,99005.44
2023-02-07T12:24:27.500Z,98985.28
2023-02-07T13:02:51.308Z,98975.72
2023-02-07T13:05:26.852Z,98974.25
2023-02-07T13:08:20.449Z,98971.09
2023-02-07T13:18:01.510Z,98965.16
2023-02-07T13:24:01.650Z,98954.72
2023-02-07T13:26:28.422Z,98958.03
2023-02-07T13:28:56.927Z,98964.66
2023-02-07T13:31:35.782Z,98955.03
2023-02-07T13:34:03.439Z,98960.28
2023-02-07T13:36:35.600Z,98958.38
2023-02-07T13:39:20.121Z,98957.97
2023-02-07T13:42:06.596Z,98956.03
2023-02-07T13:44:51.614Z,98979.09
2023-02-07T13:47:40.425Z,98966.81
2023-02-07T13:50:25.416Z,98973.22
2023-02-07T13:56:42.625Z,98965.28
2023-02-07T13:59:42.590Z,98976.50
2023-02-07T14:02:22.212Z,98966.53
2023-02-07T14:04:58.862Z,98969.22
2023-02-07T14:07:29.703Z,98978.25
2023-02-07T14:13:20.568Z,98961.03
2023-02-07T14:15:47.033Z,98966.31
2023-02-07T14:18:40.771Z,98967.41
2023-02-07T14:21:20.043Z,98969.50
2023-02-07T14:24:01.464Z,98991.47
2023-02-07T14:26:40.044Z,99004.81
2023-02-07T14:29:59.472Z,98994.91
2023-02-07T14:36:05.628Z,98999.00
2023-02-07T14:38:35.020Z,98996.72
2023-02-07T14:41:11.197Z,98990.75
2023-02-07T14:43:54.311Z,98989.94
2023-02-07T14:46:38.158Z,98999.53
2023-02-07T14:49:07.650Z,98998.72
2023-02-07T14:51:41.500Z,99009.13
2023-02-07T14:54:27.914Z,99004.81
2023-02-07T14:57:03.800Z,99008.28
2023-02-07T14:59:43.754Z,99013.47
2023-02-07T15:02:28.599Z,99013.47
2023-02-07T15:04:55.022Z,99009.16
2023-02-07T15:07:21.355Z,99011.72
2023-02-07T15:09:47.869Z,99007.41
2023-02-07T15:12:27.032Z,99015.19
2023-02-07T15:14:56.966Z,99013.44
2023-02-07T15:17:28.845Z,99019.50
2023-02-07T15:19:59.936Z,99019.47
2023-02-07T15:22:28.261Z,99028.13
2023-02-07T15:24:58.564Z,99030.72
2023-02-07T15:27:27.316Z,99034.16
2023-02-07T15:29:55.350Z,99030.69
2023-02-07T15:32:22.853Z,99038.44
2023-02-07T15:34:49.611Z,99039.31
2023-02-07T15:37:19.410Z,99045.34
2023-02-07T15:39:46.106Z,99039.28
2023-02-07T15:42:16.511Z,99037.50
2023-02-07T15:44:47.997Z,99036.63
2023-02-07T15:47:29.456Z,99045.22
2023-02-07T15:50:00.493Z,99045.16
2023-02-07T15:52:46.455Z,99047.72
2023-02-07T15:55:17.825Z,99045.13
2023-02-07T15:57:44.807Z,99045.06
2023-02-07T16:00:17.140Z,99051.09
2023-02-07T16:02:48.167Z,99045.03
2023-02-07T16:05:22.648Z,99046.69
2023-02-07T16:07:49.138Z,99052.69
2023-02-07T16:10:20.244Z,99053.50
2023-02-07T16:12:52.844Z,99041.41
2023-02-07T16:15:22.106Z,99045.63
2023-02-07T16:17:48.491Z,99052.50
2023-02-07T16:20:15.659Z,99057.66
2023-02-07T16:22:43.810Z,99059.34
2023-02-07T16:25:15.271Z,99054.94
2023-02-07T16:27:43.810Z,99062.66
2023-02-07T16:30:15.286Z,99053.16
2023-02-07T16:32:41.725Z,99053.09
2023-02-07T16:35:16.206Z,99059.91
2023-02-07T16:37:42.575Z,99061.53
2023-02-07T16:40:09.611Z,99063.19
2023-02-07T16:42:36.148Z,99064.00
2023-02-07T16:45:02.483Z,99074.28
2023-02-07T16:47:28.865Z,99071.63
2023-02-07T16:49:55.260Z,99069.81
2023-02-07T16:52:21.707Z,99078.38
2023-02-07T16:54:48.166Z,99079.13
2023-02-07T16:57:15.117Z,99081.66
2023-02-07T16:59:41.730Z,99081.59
2023-02-07T17:02:14.981Z,99075.50
2023-02-07T17:04:41.424Z,99077.97
2023-02-07T17:07:09.909Z,99079.59
2023-02-07T17:09:36.323Z,99076.09
2023-02-07T17:12:02.899Z,99078.63
2023-02-07T17:14:29.535Z,99073.38
2023-02-07T17:16:56.154Z,99073.38
2023-02-07T17:19:23.667Z,99072.50
2023-02-07T17:21:50.833Z,99074.16
2023-02-07T17:24:17.488Z,99073.22
2023-02-07T17:26:46.066Z,99074.03
2023-02-07T17:29:13.278Z,99084.25
2023-02-07T17:31:40.232Z,99078.09
2023-02-07T17:34:06.680Z,99083.97
2023-02-07T17:36:34.238Z,99087.31
2023-02-07T17:39:01.135Z,99079.47
2023-02-07T17:41:27.592Z,99076.78
2023-02-07T17:43:54.270Z,99082.72
2023-02-07T17:46:22.175Z,99080.88
2023-02-07T17:48:50.862Z,99079.91
2023-02-07T17:51:18.519Z,99083.19
2023-02-07T17:53:45.052Z,99084.81
2023-02-07T17:56:19.181Z,99086.50
2023-02-07T17:58:45.577Z,99083.78
2023-02-07T18:01:12.078Z,99087.13
2023-02-07T18:03:38.592Z,99082.75
2023-02-07T18:06:05.091Z,99099.00
2023-02-07T18:08:31.510Z,99098.03
2023-02-07T18:11:01.497Z,99113.41
2023-02-07T18:13:27.974Z,99103.09
2023-02-07T18:15:54.766Z,99108.13
2023-02-07T18:18:21.173Z,99106.28
2023-02-07T18:20:47.531Z,99107.06
2023-02-07T18:23:15.031Z,99108.72
2023-02-07T18:25:46.383Z,99105.19
2023-02-07T18:28:14.206Z,99108.63
2023-02-07T18:30:40.988Z,99112.16
2023-02-07T18:33:07.624Z,99118.06
2023-02-07T18:35:34.059Z,99118.03
2023-02-07T18:38:00.926Z,99118.75
2023-02-07T18:40:27.409Z,99121.13
2023-02-07T18:42:53.938Z,99127.81
2023-02-07T18:45:20.356Z,99130.25
2023-02-07T18:47:48.352Z,99134.44
2023-02-07T18:50:15.188Z,99131.72
2023-02-07T18:52:41.571Z,99137.63
2023-02-07T18:55:08.414Z,99135.78
2023-02-07T18:57:34.901Z,99135.75
2023-02-07T19:00:01.645Z,99134.81
2023-02-07T19:02:28.196Z,99133.88
2023-02-07T19:04:54.605Z,99132.97
2023-02-07T19:07:21.025Z,99125.97
2023-02-07T19:09:47.446Z,99130.25
2023-02-07T19:12:14.267Z,99124.88
2023-02-07T19:14:40.689Z,99117.06
2023-02-07T19:17:07.069Z,99111.78
2023-02-07T19:19:33.887Z,99117.63
2023-02-07T19:22:00.558Z,99120.09
2023-02-07T19:24:27.491Z,99121.69
2023-02-07T19:26:56.077Z,99118.13
2023-02-07T19:29:28.138Z,99120.66
2023-02-07T19:32:02.228Z,99123.06
2023-02-07T19:34:28.674Z,99124.66
2023-02-07T19:36:55.190Z,99120.41
2023-02-07T19:39:21.823Z,99115.31
2023-02-07T19:41:48.647Z,99117.69
2023-02-07T19:44:15.074Z,99123.53
2023-02-07T19:46:41.605Z,99118.16
2023-02-07T19:49:10.140Z,99125.06
2023-02-07T19:51:38.240Z,99123.31
2023-02-07T19:54:04.754Z,99120.59
2023-02-07T19:56:34.696Z,99120.53
2023-02-07T19:59:03.066Z,99115.31
2023-02-07T20:01:30.352Z,99124.66
2023-02-07T20:03:58.261Z,99127.97
2023-02-07T20:06:28.378Z,99120.25
2023-02-07T20:08:55.410Z,99132.97
2023-02-07T20:11:22.197Z,99126.00
2023-02-07T20:13:50.785Z,99123.44
2023-02-07T20:16:18.694Z,99136.97
2023-02-07T20:18:45.121Z,99135.03
2023-02-07T20:21:14.381Z,99135.22
2023-02-07T20:23:44.100Z,99128.91
2023-02-07T20:26:12.086Z,99133.81
2023-02-07T20:28:38.578Z,99134.47
2023-02-07T20:31:11.944Z,99130.19
2023-02-07T20:33:39.115Z,99142.28
2023-02-07T20:36:06.217Z,99143.94
2023-02-07T20:38:32.924Z,99147.38
2023-02-07T20:41:06.794Z,99147.28
2023-02-07T20:43:33.329Z,99149.59
2023-02-07T20:46:03.892Z,99145.22
2023-02-07T20:48:30.273Z,99145.28
2023-02-07T20:50:57.508Z,99144.41
2023-02-07T20:53:23.906Z,99145.28
2023-02-07T20:55:50.328Z,99156.25
2023-02-07T20:58:17.682Z,99156.09
2023-02-07T21:00:44.157Z,99152.47
2023-02-07T21:03:10.583Z,99152.41
2023-02-07T21:05:38.211Z,99154.81
2023-02-07T21:08:04.664Z,99152.28
2023-02-07T21:10:31.234Z,99163.41
2023-02-07T21:12:59.189Z,99160.72
2023-02-07T21:15:25.607Z,99161.56
2023-02-07T21:17:51.994Z,99166.50
2023-02-07T21:20:18.443Z,99166.41
2023-02-07T21:22:44.857Z,99165.44
2023-02-07T21:25:11.253Z,99172.97
2023-02-07T21:27:38.662Z,99178.94
2023-02-07T21:30:05.683Z,99171.09
2023-02-07T21:32:32.199Z,99169.25
2023-02-07T21:34:58.654Z,99170.88
2023-02-07T21:37:25.032Z,99170.88
2023-02-07T21:39:51.449Z,99171.66
2023-02-07T21:42:17.822Z,99175.84
2023-02-07T21:44:44.445Z,99173.09
2023-02-07T21:47:10.825Z,99177.16
2023-02-07T21:49:37.655Z,99175.34
2023-02-07T21:52:04.145Z,99176.06
2023-02-07T21:54:30.485Z,99175.03
2023-02-07T21:56:56.988Z,99168.88
2023-02-07T21:59:23.385Z,99161.97
2023-02-07T22:01:50.245Z,99163.75
2023-02-07T22:04:16.862Z,99170.66
2023-02-07T22:06:44.314Z,99161.16
2023-02-07T22:09:12.078Z,99164.59
2023-02-07T22:11:38.580Z,99165.63
2023-02-07T22:14:05.106Z,99160.31
2023-02-07T22:16:31.882Z,99161.88
2023-02-07T22:18:59.411Z,99158.28
2023-02-07T22:21:27.486Z,99161.44
2023-02-07T22:23:54.335Z,99162.16
2023-02-07T22:26:21.838Z,99166.28
2023-02-07T22:28:48.675Z,99160.22
2023-02-07T22:31:19.751Z,99155.03
2023-02-07T22:33:46.774Z,99153.25
2023-02-07T22:36:20.546Z,99147.94
2023-02-07T22:38:47.454Z,99150.56
2023-02-07T22:41:13.936Z,99150.56
2023-02-07T22:43:40.878Z,99146.19
2023-02-07T22:46:08.521Z,99152.00
2023-02-07T22:48:35.458Z,99144.97
2023-02-07T22:51:11.155Z,99150.72
2023-02-07T22:53:37.570Z,99149.78
2023-02-07T22:56:04.153Z,99158.22
2023-02-07T22:58:30.801Z,99141.97
2023-02-07T23:00:57.190Z,99142.91
2023-02-07T23:03:23.638Z,99154.81
2023-02-07T23:05:50.032Z,99153.03
2023-02-07T23:08:16.407Z,99149.59
2023-02-07T23:10:43.588Z,99148.69
2023-02-07T23:13:09.988Z,99151.41
2023-02-07T23:15:36.518Z,99145.41
2023-02-07T23:18:03.788Z,99151.41
2023-02-07T23:20:30.190Z,99148.75
2023-02-07T23:22:56.548Z,99150.50
2023-02-07T23:25:22.967Z,99151.25
2023-02-07T23:27:49.638Z,99152.06
2023-02-07T23:30:16.080Z,99141.78
2023-02-07T23:32:42.559Z,99150.25
2023-02-07T23:35:09.477Z,99144.19
2023-02-07T23:37:36.119Z,99143.34
2023-02-07T23:40:02.702Z,99130.38
2023-02-07T23:42:29.076Z,99135.63
2023-02-07T23:44:55.599Z,99126.13
2023-02-07T23:47:22.014Z,99129.47
2023-02-07T23:49:48.356Z,99128.47
2023-02-07T23:52:14.734Z,99130.22
2023-02-07T23:54:41.161Z,99127.81
2023-02-07T23:57:07.738Z,99125.25
2023-02-07T23:59:34.874Z,99123.41
